Time;durP1;ratioP1;P1;durP2;ratioP2;P2;SDS_P1;SDS_P2;PMS_P1;PMS_P2;Temp;Humidity;BMP_temperature;BMP_pressure;BME280_temperature;BME280_humidity;BME280_pressure;Samples;Min_cycle;Max_cycle;Signal;HPM_P1;HPM_P2
2022/08/27 00:00:22;;;;;;;7.47;2.83;;;;;;;;;;1020131;29;20030;-74
2022/08/27 00:00:53;;;;;;;8.23;2.95;;;;;;;;;;1020420;29;20400;-75
2022/08/27 00:01:24;;;;;;;13.25;2.60;;;;;;;;;;1020066;29;20066;-74
2022/08/27 00:01:54;;;;;;;7.22;2.63;;;;;;;;;;1024527;28;20122;-74
2022/08/27 00:02:25;;;;;;;9.30;3.00;;;;;;;;;;1023912;29;20034;-74
2022/08/27 00:02:55;;;;;;;8.73;2.00;;;;;;;;;;1024864;28;20167;-74
2022/08/27 00:03:26;;;;;;;9.85;2.95;;;;;;;;;;1027903;28;20033;-74
2022/08/27 00:03:57;;;;;;;9.45;2.53;;;;;;;;;;1028089;28;20027;-74
2022/08/27 00:04:27;;;;;;;8.43;3.25;;;;;;;;;;1028359;28;20462;-74
2022/08/27 00:04:58;;;;;;;18.60;2.75;;;;;;;;;;1028249;28;20026;-75
2022/08/27 00:05:28;;;;;;;4.57;1.95;;;;;;;;;;1028346;28;20498;-74
2022/08/27 00:05:59;;;;;;;17.38;2.45;;;;;;;;;;1027916;28;20443;-74
2022/08/27 00:06:29;;;;;;;4.50;1.83;;;;;;;;;;1027992;28;20487;-74
2022/08/27 00:07:00;;;;;;;5.15;1.60;;;;;;;;;;1027787;28;20054;-74
2022/08/27 00:07:30;;;;;;;9.73;2.33;;;;;;;;;;1028029;28;20038;-75
2022/08/27 00:08:02;;;;;;;3.85;2.00;;;;;;;;;;1028307;28;20030;-74
2022/08/27 00:08:33;;;;;;;4.47;1.92;;;;;;;;;;1028371;28;20091;-74
2022/08/27 00:09:04;;;;;;;6.60;2.35;;;;;;;;;;1027886;28;20025;-74
2022/08/27 00:09:35;;;;;;;4.63;1.85;;;;;;;;;;1028046;28;20042;-74
2022/08/27 00:10:07;;;;;;;6.07;1.83;;;;;;;;;;1027804;28;20034;-74
2022/08/27 00:10:38;;;;;;;6.03;1.88;;;;;;;;;;1028105;28;20038;-74
2022/08/27 00:11:09;;;;;;;5.15;1.75;;;;;;;;;;1023833;29;20058;-74
2022/08/27 00:11:40;;;;;;;3.13;1.85;;;;;;;;;;1024405;28;20038;-74
2022/08/27 00:12:11;;;;;;;7.95;2.35;;;;;;;;;;1023766;28;20404;-74
2022/08/27 00:12:41;;;;;;;4.20;1.75;;;;;;;;;;1024376;28;20031;-74
2022/08/27 00:13:12;;;;;;;10.45;2.58;;;;;;;;;;1027906;28;20026;-74
2022/08/27 00:13:43;;;;;;;9.27;1.90;;;;;;;;;;1028070;28;20030;-75
2022/08/27 00:14:14;;;;;;;9.75;2.15;;;;;;;;;;1028224;28;20056;-74
2022/08/27 00:14:45;;;;;;;7.03;1.92;;;;;;;;;;1028361;28;20023;-74
2022/08/27 00:15:16;;;;;;;15.45;2.50;;;;;;;;;;1028220;28;20035;-74
2022/08/27 00:15:47;;;;;;;5.82;2.25;;;;;;;;;;1028392;28;20427;-74
2022/08/27 00:16:18;;;;;;;7.28;1.63;;;;;;;;;;1028149;28;20117;-75
2022/08/27 00:16:49;;;;;;;7.90;2.10;;;;;;;;;;1028292;28;20035;-75
2022/08/27 00:17:19;;;;;;;11.35;2.10;;;;;;;;;;1028150;28;20522;-75
2022/08/27 00:17:50;;;;;;;3.78;2.20;;;;;;;;;;1028424;28;20023;-74
2022/08/27 00:18:21;;;;;;;5.97;2.00;;;;;;;;;;1028153;28;20164;-74
2022/08/27 00:18:52;;;;;;;6.57;2.08;;;;;;;;;;1028357;28;20554;-74
2022/08/27 00:19:23;;;;;;;7.38;1.92;;;;;;;;;;1028130;28;20037;-74
2022/08/27 00:19:54;;;;;;;4.43;1.48;;;;;;;;;;1027987;28;20109;-74
2022/08/27 00:20:26;;;;;;;5.03;1.35;;;;;;;;;;1027870;28;20510;-74
2022/08/27 00:20:56;;;;;;;7.07;1.52;;;;;;;;;;1028076;28;20027;-75
2022/08/27 00:21:27;;;;;;;10.40;2.05;;;;;;;;;;1027976;28;20086;-74
2022/08/27 00:21:58;;;;;;;16.67;2.42;;;;;;;;;;1028201;28;20474;-74
2022/08/27 00:22:28;;;;;;;8.82;2.85;;;;;;;;;;1027808;28;20027;-75
2022/08/27 00:22:59;;;;;;;4.90;1.92;;;;;;;;;;1027989;28;20181;-74
2022/08/27 00:23:30;;;;;;;5.07;1.90;;;;;;;;;;1027957;28;20552;-74
2022/08/27 00:24:01;;;;;;;8.27;2.08;;;;;;;;;;1027861;28;20033;-74
2022/08/27 00:24:31;;;;;;;6.45;2.17;;;;;;;;;;1028191;28;20030;-74
2022/08/27 00:25:03;;;;;;;8.35;1.75;;;;;;;;;;1028213;28;20031;-74
2022/08/27 00:25:33;;;;;;;6.30;2.10;;;;;;;;;;1028276;28;20026;-74
2022/08/27 00:26:05;;;;;;;4.78;2.10;;;;;;;;;;1027459;28;20027;-74
2022/08/27 00:26:35;;;;;;;15.63;2.40;;;;;;;;;;1027653;28;20038;-75
2022/08/27 00:27:06;;;;;;;11.23;1.92;;;;;;;;;;1027585;28;20396;-74
2022/08/27 00:27:37;;;;;;;5.95;1.77;;;;;;;;;;1028055;28;20018;-75
2022/08/27 00:28:07;;;;;;;5.97;2.33;;;;;;;;;;1027836;28;20030;-74
2022/08/27 00:28:38;;;;;;;7.63;1.95;;;;;;;;;;1028025;28;20056;-74
2022/08/27 00:29:09;;;;;;;5.93;2.40;;;;;;;;;;1028149;28;20026;-74
2022/08/27 00:29:40;;;;;;;7.45;1.80;;;;;;;;;;1028355;28;20066;-74
2022/08/27 00:30:13;;;;;;;9.38;1.95;;;;;;;;;;1028150;28;20390;-74
2022/08/27 00:30:44;;;;;;;10.60;2.13;;;;;;;;;;1028270;28;20065;-74
2022/08/27 00:31:14;;;;;;;9.35;3.03;;;;;;;;;;1028086;28;20037;-74
2022/08/27 00:31:45;;;;;;;3.88;1.85;;;;;;;;;;1028264;28;20042;-74
2022/08/27 00:32:16;;;;;;;11.25;2.60;;;;;;;;;;1027770;28;20031;-74
2022/08/27 00:32:47;;;;;;;7.80;2.13;;;;;;;;;;1028008;28;20443;-74
2022/08/27 00:33:19;;;;;;;15.35;2.38;;;;;;;;;;1027795;28;20081;-74
2022/08/27 00:33:51;;;;;;;13.30;2.75;;;;;;;;;;1027932;28;20498;-74
2022/08/27 00:34:22;;;;;;;7.97;2.22;;;;;;;;;;1027689;28;20019;-75
2022/08/27 00:34:52;;;;;;;7.45;3.00;;;;;;;;;;1027916;28;20510;-74
2022/08/27 00:35:23;;;;;;;14.88;3.67;;;;;;;;;;1027766;28;20023;-74
2022/08/27 00:35:54;;;;;;;6.07;2.35;;;;;;;;;;1028047;28;20034;-74
2022/08/27 00:36:24;;;;;;;6.22;3.13;;;;;;;;;;1027712;28;20041;-74
2022/08/27 00:36:55;;;;;;;16.77;2.85;;;;;;;;;;1027863;28;20015;-74
2022/08/27 00:37:26;;;;;;;9.10;2.97;;;;;;;;;;1027746;28;20094;-74
2022/08/27 00:37:56;;;;;;;17.27;3.25;;;;;;;;;;1027954;28;20027;-74
2022/08/27 00:38:27;;;;;;;10.77;2.88;;;;;;;;;;1027857;28;20035;-74
2022/08/27 00:38:58;;;;;;;14.32;3.25;;;;;;;;;;1028162;28;20029;-74
2022/08/27 00:39:29;;;;;;;10.25;2.47;;;;;;;;;;1027765;28;20023;-74
2022/08/27 00:39:59;;;;;;;13.38;2.03;;;;;;;;;;1027864;28;20078;-74
2022/08/27 00:40:32;;;;;;;4.40;2.17;;;;;;;;;;1027896;28;20022;-74
2022/08/27 00:41:04;;;;;;;5.28;2.97;;;;;;;;;;1027884;28;20371;-74
2022/08/27 00:41:34;;;;;;;9.40;2.65;;;;;;;;;;1028255;28;20411;-74
2022/08/27 00:42:05;;;;;;;6.38;2.67;;;;;;;;;;1027998;28;20059;-74
2022/08/27 00:42:35;;;;;;;10.52;2.10;;;;;;;;;;1028239;28;20030;-74
2022/08/27 00:43:06;;;;;;;6.40;1.95;;;;;;;;;;1027680;28;20121;-74
2022/08/27 00:44:06;;;;;;;12.90;3.20;;;;;;;;;;1027959;28;20023;-74
2022/08/27 00:44:37;;;;;;;14.77;3.20;;;;;;;;;;1019804;29;20027;-74
2022/08/27 00:45:08;;;;;;;9.27;2.97;;;;;;;;;;1028126;28;20395;-74
2022/08/27 00:45:40;;;;;;;12.43;3.13;;;;;;;;;;1028274;28;20117;-74
2022/08/27 00:46:18;;;;;;;7.18;2.63;;;;;;;;;;1028093;28;20030;-75
2022/08/27 00:46:52;;;;;;;14.02;4.38;;;;;;;;;;1028196;28;20027;-74
2022/08/27 00:47:25;;;;;;;10.75;5.63;;;;;;;;;;1027947;28;20031;-74
2022/08/27 00:47:57;;;;;;;15.18;5.72;;;;;;;;;;1028258;28;20027;-74
2022/08/27 00:48:30;;;;;;;7.50;4.30;;;;;;;;;;1028195;28;20026;-75
2022/08/27 00:49:06;;;;;;;12.43;4.07;;;;;;;;;;1027674;28;20026;-74
2022/08/27 00:49:48;;;;;;;9.40;3.67;;;;;;;;;;1027886;28;20503;-74
2022/08/27 00:50:22;;;;;;;16.58;4.57;;;;;;;;;;1027573;28;20399;-75
2022/08/27 00:50:54;;;;;;;13.35;5.32;;;;;;;;;;1027982;28;20034;-74
2022/08/27 00:51:26;;;;;;;11.00;3.50;;;;;;;;;;1027703;28;20129;-74
2022/08/27 00:51:59;;;;;;;9.30;3.28;;;;;;;;;;1027972;28;20062;-74
2022/08/27 00:52:32;;;;;;;14.60;4.93;;;;;;;;;;1028154;28;20038;-74
2022/08/27 00:53:05;;;;;;;30.65;10.98;;;;;;;;;;1028161;28;20030;-74
2022/08/27 00:53:36;;;;;;;53.55;19.38;;;;;;;;;;1027848;28;20488;-74
2022/08/27 00:54:08;;;;;;;58.63;27.98;;;;;;;;;;1027722;28;20038;-74
2022/08/27 00:54:38;;;;;;;75.07;30.08;;;;;;;;;;1027904;28;20031;-74
2022/08/27 00:55:12;;;;;;;34.28;9.32;;;;;;;;;;1027768;28;20062;-74
2022/08/27 00:55:48;;;;;;;22.80;9.48;;;;;;;;;;1027835;28;20502;-74
2022/08/27 00:56:22;;;;;;;26.58;11.00;;;;;;;;;;1027698;28;20123;-74
2022/08/27 00:56:52;;;;;;;31.98;7.50;;;;;;;;;;1027777;28;20022;-74
2022/08/27 00:57:23;;;;;;;13.98;6.78;;;;;;;;;;1027602;28;20027;-74
2022/08/27 00:58:01;;;;;;;21.90;4.70;;;;;;;;;;1028050;28;20022;-75
2022/08/27 00:58:35;;;;;;;19.67;5.85;;;;;;;;;;1028433;28;20062;-74
2022/08/27 00:59:06;;;;;;;28.80;9.38;;;;;;;;;;1027837;28;20027;-74
2022/08/27 00:59:37;;;;;;;35.05;13.60;;;;;;;;;;1027655;28;20117;-74
2022/08/27 01:00:10;;;;;;;30.50;8.90;;;;;;;;;;1024001;28;20035;-74
2022/08/27 01:00:42;;;;;;;16.23;7.22;;;;;;;;;;1024225;28;20023;-75
2022/08/27 01:01:15;;;;;;;47.90;20.33;;;;;;;;;;1024097;28;20035;-75
2022/08/27 01:02:35;;;;;;;71.15;28.50;;;;;;;;;;1024167;29;20027;-74
2022/08/27 01:03:05;;;;;;;67.68;25.58;;;;;;;;;;1024007;29;20027;-74
2022/08/27 01:03:36;;;;;;;72.97;27.05;;;;;;;;;;1024179;29;20034;-74
2022/08/27 01:04:07;;;;;;;162.77;63.50;;;;;;;;;;1024042;28;20062;-74
2022/08/27 01:04:39;;;;;;;146.15;58.78;;;;;;;;;;1024156;28;20031;-74
2022/08/27 01:05:14;;;;;;;185.05;67.93;;;;;;;;;;1027038;28;20022;-74
2022/08/27 01:05:46;;;;;;;190.65;74.40;;;;;;;;;;1027701;28;20023;-74
2022/08/27 01:06:17;;;;;;;143.25;55.03;;;;;;;;;;1027676;28;20041;-74
2022/08/27 01:06:48;;;;;;;133.60;55.50;;;;;;;;;;1027810;28;20031;-75
2022/08/27 01:07:19;;;;;;;141.50;51.47;;;;;;;;;;1023970;28;20165;-75
2022/08/27 01:07:52;;;;;;;138.48;49.92;;;;;;;;;;1023826;29;20027;-75
2022/08/27 01:08:24;;;;;;;110.07;40.75;;;;;;;;;;1023660;29;20061;-74
2022/08/27 01:08:57;;;;;;;112.55;39.58;;;;;;;;;;1023789;29;20031;-75
2022/08/27 01:09:28;;;;;;;99.75;38.13;;;;;;;;;;1024752;28;20027;-74
2022/08/27 01:09:59;;;;;;;104.40;39.03;;;;;;;;;;1027680;28;20097;-74
2022/08/27 01:10:30;;;;;;;99.60;37.63;;;;;;;;;;1023615;29;20118;-75
2022/08/27 01:11:01;;;;;;;87.82;35.83;;;;;;;;;;1023671;29;20404;-75
2022/08/27 01:11:32;;;;;;;101.35;38.33;;;;;;;;;;1023713;29;20031;-74
2022/08/27 01:12:03;;;;;;;85.82;33.38;;;;;;;;;;1023636;28;20062;-74
2022/08/27 01:12:33;;;;;;;86.85;33.83;;;;;;;;;;1024124;28;20031;-75
2022/08/27 01:13:07;;;;;;;84.82;30.60;;;;;;;;;;1027688;28;20023;-75
2022/08/27 01:13:38;;;;;;;63.08;24.00;;;;;;;;;;1027892;28;20121;-75
2022/08/27 01:14:09;;;;;;;75.07;28.95;;;;;;;;;;1027992;28;20093;-75
2022/08/27 01:14:40;;;;;;;70.25;27.05;;;;;;;;;;1028174;28;20026;-75
2022/08/27 01:15:12;;;;;;;67.53;29.13;;;;;;;;;;1027973;28;20118;-75
2022/08/27 01:15:43;;;;;;;63.03;24.45;;;;;;;;;;1027702;28;20022;-75
2022/08/27 01:16:19;;;;;;;57.78;25.80;;;;;;;;;;1027560;28;20121;-75
2022/08/27 01:16:53;;;;;;;73.72;26.75;;;;;;;;;;1027764;28;20027;-75
2022/08/27 01:17:24;;;;;;;71.93;29.60;;;;;;;;;;1023544;29;20212;-75
2022/08/27 01:17:56;;;;;;;72.05;23.90;;;;;;;;;;1025147;28;20053;-75
2022/08/27 01:18:28;;;;;;;58.95;23.67;;;;;;;;;;1023563;29;20396;-75
2022/08/27 01:18:59;;;;;;;57.30;23.10;;;;;;;;;;1020318;29;20032;-75
2022/08/27 01:19:33;;;;;;;64.63;24.63;;;;;;;;;;1023787;29;20502;-75
2022/08/27 01:20:07;;;;;;;71.18;26.80;;;;;;;;;;1024441;28;20023;-74
2022/08/27 01:20:44;;;;;;;67.65;26.10;;;;;;;;;;1027815;28;20027;-74
2022/08/27 01:21:18;;;;;;;70.07;27.77;;;;;;;;;;1027660;28;20113;-74
2022/08/27 01:21:58;;;;;;;80.18;28.70;;;;;;;;;;1027913;28;20050;-74
2022/08/27 01:22:35;;;;;;;49.58;19.90;;;;;;;;;;1027972;28;20023;-74
2022/08/27 01:23:08;;;;;;;49.92;18.02;;;;;;;;;;1027947;28;20026;-74
2022/08/27 01:23:39;;;;;;;44.28;18.20;;;;;;;;;;1028116;28;20077;-75
2022/08/27 01:24:27;;;;;;;55.80;22.23;;;;;;;;;;1027562;28;20078;-75
2022/08/27 01:25:00;;;;;;;44.88;17.08;;;;;;;;;;1027622;28;20030;-75
2022/08/27 01:25:31;;;;;;;37.33;15.32;;;;;;;;;;1027732;28;20023;-75
2022/08/27 01:26:03;;;;;;;32.80;13.00;;;;;;;;;;1027738;28;20026;-75
2022/08/27 01:26:35;;;;;;;52.50;16.75;;;;;;;;;;1027897;28;20487;-75
2022/08/27 01:27:07;;;;;;;22.65;7.97;;;;;;;;;;1027405;28;20098;-75
2022/08/27 01:27:38;;;;;;;20.48;7.38;;;;;;;;;;1027822;28;20514;-75
2022/08/27 01:28:09;;;;;;;24.88;9.55;;;;;;;;;;1027664;28;20034;-75
2022/08/27 01:28:41;;;;;;;14.75;7.05;;;;;;;;;;1027783;28;20102;-75
2022/08/27 01:29:12;;;;;;;39.15;8.43;;;;;;;;;;1027922;28;20082;-75
2022/08/27 01:29:43;;;;;;;30.38;12.65;;;;;;;;;;1028125;28;20041;-75
2022/08/27 01:30:17;;;;;;;29.23;11.68;;;;;;;;;;1027941;28;20027;-75
2022/08/27 01:30:47;;;;;;;20.45;7.47;;;;;;;;;;1028082;28;20069;-75
2022/08/27 01:31:18;;;;;;;17.38;6.28;;;;;;;;;;1027904;28;20026;-75
2022/08/27 01:31:48;;;;;;;25.50;4.82;;;;;;;;;;1027601;28;20479;-75
2022/08/27 01:32:30;;;;;;;8.85;3.97;;;;;;;;;;1027612;28;20022;-75
2022/08/27 01:33:06;;;;;;;17.45;4.97;;;;;;;;;;1027636;28;20039;-75
2022/08/27 01:33:37;;;;;;;28.75;7.68;;;;;;;;;;1027908;28;20117;-75
2022/08/27 01:34:08;;;;;;;18.65;5.55;;;;;;;;;;1027925;28;20459;-74
2022/08/27 01:34:39;;;;;;;21.08;5.05;;;;;;;;;;1028097;28;20093;-75
2022/08/27 01:35:10;;;;;;;28.05;5.18;;;;;;;;;;1027777;28;20031;-75
2022/08/27 01:35:47;;;;;;;13.23;5.60;;;;;;;;;;1028076;28;20073;-75
2022/08/27 01:36:17;;;;;;;14.32;6.25;;;;;;;;;;1027925;28;20034;-75
2022/08/27 01:36:48;;;;;;;16.33;5.10;;;;;;;;;;1028048;28;20430;-75
2022/08/27 01:37:19;;;;;;;17.77;5.05;;;;;;;;;;1027880;28;20033;-75
2022/08/27 01:37:52;;;;;;;12.50;4.55;;;;;;;;;;1027980;28;20035;-75
2022/08/27 01:38:23;;;;;;;13.05;5.32;;;;;;;;;;1027473;28;20057;-75
2022/08/27 01:38:54;;;;;;;18.67;5.68;;;;;;;;;;1027799;28;20042;-75
2022/08/27 01:39:25;;;;;;;14.60;5.40;;;;;;;;;;1027491;28;20185;-75
2022/08/27 01:39:57;;;;;;;15.70;4.70;;;;;;;;;;1027696;28;20553;-75
2022/08/27 01:40:27;;;;;;;18.80;5.15;;;;;;;;;;1027699;28;20073;-75
2022/08/27 01:40:59;;;;;;;18.15;6.13;;;;;;;;;;1027715;28;20085;-75
2022/08/27 01:41:29;;;;;;;32.58;6.28;;;;;;;;;;1027727;28;20058;-75
2022/08/27 01:42:26;;;;;;;14.82;6.45;;;;;;;;;;1027971;28;20539;-75
2022/08/27 01:42:58;;;;;;;25.92;6.60;;;;;;;;;;1024953;28;20138;-75
2022/08/27 01:43:30;;;;;;;38.38;7.38;;;;;;;;;;1028022;28;20019;-75
2022/08/27 01:44:00;;;;;;;32.17;8.27;;;;;;;;;;1027992;28;20038;-75
2022/08/27 01:44:40;;;;;;;21.63;6.65;;;;;;;;;;1027637;28;20035;-75
2022/08/27 01:45:15;;;;;;;21.33;5.63;;;;;;;;;;1027633;28;20065;-75
2022/08/27 01:45:48;;;;;;;20.33;7.93;;;;;;;;;;1027783;28;20053;-75
2022/08/27 01:46:22;;;;;;;19.17;7.18;;;;;;;;;;1027720;28;20031;-75
2022/08/27 01:46:53;;;;;;;20.75;6.50;;;;;;;;;;1028016;28;20391;-75
2022/08/27 01:47:25;;;;;;;15.55;6.03;;;;;;;;;;1027815;28;20056;-75
2022/08/27 01:47:56;;;;;;;28.42;7.22;;;;;;;;;;1028084;28;20086;-75
2022/08/27 01:48:27;;;;;;;24.35;7.30;;;;;;;;;;1027991;28;20032;-75
2022/08/27 01:48:57;;;;;;;13.05;5.65;;;;;;;;;;1027988;28;20038;-75
2022/08/27 01:49:28;;;;;;;30.45;8.02;;;;;;;;;;1027970;28;20554;-75
2022/08/27 01:49:59;;;;;;;16.98;5.93;;;;;;;;;;1027572;28;20022;-75
2022/08/27 01:50:37;;;;;;;21.85;6.22;;;;;;;;;;1027661;28;20090;-75
2022/08/27 01:51:08;;;;;;;15.30;5.65;;;;;;;;;;1027594;28;20475;-75
2022/08/27 01:51:39;;;;;;;25.52;5.72;;;;;;;;;;1027839;28;20117;-75
2022/08/27 01:52:10;;;;;;;27.02;6.38;;;;;;;;;;1027780;28;20441;-74
2022/08/27 01:52:40;;;;;;;21.02;5.43;;;;;;;;;;1028018;28;20069;-74
2022/08/27 01:53:15;;;;;;;21.38;6.13;;;;;;;;;;1027523;28;20029;-74
2022/08/27 01:53:47;;;;;;;22.40;5.55;;;;;;;;;;1027856;28;20030;-74
2022/08/27 01:54:17;;;;;;;32.33;6.40;;;;;;;;;;1027637;28;20026;-74
2022/08/27 01:54:50;;;;;;;20.75;5.93;;;;;;;;;;1027881;28;20031;-74
2022/08/27 01:55:22;;;;;;;15.30;6.47;;;;;;;;;;1027924;28;20125;-74
2022/08/27 01:55:54;;;;;;;17.65;6.22;;;;;;;;;;1028036;28;20019;-74
2022/08/27 01:56:24;;;;;;;18.55;5.82;;;;;;;;;;1027854;28;20022;-74
2022/08/27 01:56:55;;;;;;;28.63;6.90;;;;;;;;;;1028131;28;20122;-75
2022/08/27 01:57:26;;;;;;;26.27;5.80;;;;;;;;;;1027468;28;20116;-75
2022/08/27 01:57:57;;;;;;;15.93;5.93;;;;;;;;;;1027744;28;20518;-75
2022/08/27 01:58:29;;;;;;;18.52;5.18;;;;;;;;;;1027639;28;20113;-75
2022/08/27 01:58:59;;;;;;;17.02;5.93;;;;;;;;;;1027698;28;20291;-74
2022/08/27 01:59:30;;;;;;;19.35;5.43;;;;;;;;;;1027961;28;20130;-75
2022/08/27 02:00:04;;;;;;;18.20;6.32;;;;;;;;;;1027812;28;20053;-75
2022/08/27 02:00:39;;;;;;;21.35;5.78;;;;;;;;;;1027993;28;20082;-75
2022/08/27 02:01:11;;;;;;;21.58;7.72;;;;;;;;;;1027860;28;20030;-75
2022/08/27 02:01:42;;;;;;;15.70;5.97;;;;;;;;;;1027994;28;20029;-75
2022/08/27 02:02:15;;;;;;;32.80;6.50;;;;;;;;;;1027802;28;20033;-75
2022/08/27 02:02:46;;;;;;;19.90;4.65;;;;;;;;;;1027609;28;20113;-75
2022/08/27 02:03:17;;;;;;;26.88;6.78;;;;;;;;;;1027425;28;20476;-75
2022/08/27 02:03:47;;;;;;;12.23;6.07;;;;;;;;;;1027713;28;20042;-75
2022/08/27 02:04:18;;;;;;;17.75;5.65;;;;;;;;;;1027491;28;20023;-75
2022/08/27 02:04:50;;;;;;;14.48;5.82;;;;;;;;;;1023624;28;20126;-75
2022/08/27 02:05:21;;;;;;;12.68;4.53;;;;;;;;;;1027504;28;20026;-75
2022/08/27 02:05:52;;;;;;;23.73;4.88;;;;;;;;;;1027759;28;20030;-75
2022/08/27 02:06:22;;;;;;;25.77;5.70;;;;;;;;;;1027537;28;20140;-75
2022/08/27 02:06:53;;;;;;;13.95;5.57;;;;;;;;;;1027532;28;20023;-75
2022/08/27 02:07:23;;;;;;;33.97;6.22;;;;;;;;;;1027461;28;20038;-75
2022/08/27 02:07:54;;;;;;;22.30;4.53;;;;;;;;;;1023693;29;20030;-75
2022/08/27 02:08:25;;;;;;;10.85;4.47;;;;;;;;;;1023696;28;20053;-75
2022/08/27 02:08:55;;;;;;;23.15;5.45;;;;;;;;;;1027755;28;20027;-75
2022/08/27 02:09:26;;;;;;;17.05;5.68;;;;;;;;;;1027550;28;20031;-75
2022/08/27 02:09:56;;;;;;;21.40;5.90;;;;;;;;;;1027944;28;20109;-75
2022/08/27 02:10:29;;;;;;;21.08;6.75;;;;;;;;;;1027913;28;20109;-75
2022/08/27 02:11:00;;;;;;;21.45;5.07;;;;;;;;;;1027916;28;20038;-75
2022/08/27 02:11:30;;;;;;;10.27;4.68;;;;;;;;;;1027485;28;20027;-75
2022/08/27 02:12:01;;;;;;;12.90;5.03;;;;;;;;;;1027540;28;20027;-75
2022/08/27 02:12:31;;;;;;;15.68;4.70;;;;;;;;;;1027680;28;20122;-75
2022/08/27 02:13:04;;;;;;;17.50;5.32;;;;;;;;;;1027636;28;20030;-75
2022/08/27 02:13:35;;;;;;;10.15;3.47;;;;;;;;;;1027974;28;20030;-75
2022/08/27 02:14:06;;;;;;;19.33;5.45;;;;;;;;;;1027435;28;20117;-75
2022/08/27 02:14:37;;;;;;;16.08;4.43;;;;;;;;;;1027728;28;20039;-75
2022/08/27 02:15:08;;;;;;;26.48;4.97;;;;;;;;;;1027471;28;20455;-75
2022/08/27 02:15:40;;;;;;;25.67;5.47;;;;;;;;;;1027638;28;20082;-75
2022/08/27 02:16:12;;;;;;;24.40;4.07;;;;;;;;;;1026010;28;20026;-75
2022/08/27 02:16:42;;;;;;;14.93;3.97;;;;;;;;;;1026031;28;20499;-75
2022/08/27 02:17:13;;;;;;;17.45;5.25;;;;;;;;;;1027563;28;20035;-75
2022/08/27 02:17:44;;;;;;;10.70;3.60;;;;;;;;;;1027781;28;20066;-75
2022/08/27 02:18:15;;;;;;;19.75;4.80;;;;;;;;;;1027644;28;20023;-75
2022/08/27 02:18:46;;;;;;;13.50;4.50;;;;;;;;;;1027876;28;20026;-75
2022/08/27 02:19:17;;;;;;;45.78;8.93;;;;;;;;;;1027818;28;20399;-75
2022/08/27 02:19:47;;;;;;;19.40;5.45;;;;;;;;;;1027868;28;20122;-75
2022/08/27 02:20:18;;;;;;;15.60;4.20;;;;;;;;;;1027770;28;20081;-75
2022/08/27 02:20:49;;;;;;;16.73;4.28;;;;;;;;;;1027589;28;20121;-75
2022/08/27 02:21:19;;;;;;;22.48;5.28;;;;;;;;;;1027500;28;20027;-75
2022/08/27 02:21:50;;;;;;;15.73;4.00;;;;;;;;;;1027661;28;20031;-75
2022/08/27 02:22:21;;;;;;;20.52;5.07;;;;;;;;;;1027308;28;20124;-75
2022/08/27 02:22:51;;;;;;;18.23;3.70;;;;;;;;;;1027986;28;20084;-75
2022/08/27 02:23:22;;;;;;;21.85;4.88;;;;;;;;;;1027838;28;20121;-75
2022/08/27 02:23:53;;;;;;;19.83;3.75;;;;;;;;;;1027599;28;20035;-75
2022/08/27 02:24:24;;;;;;;13.45;3.85;;;;;;;;;;1027503;28;20034;-75
2022/08/27 02:24:55;;;;;;;14.48;4.78;;;;;;;;;;1027720;28;20550;-75
2022/08/27 02:25:27;;;;;;;16.10;4.30;;;;;;;;;;1027674;28;20066;-75
2022/08/27 02:25:58;;;;;;;21.35;3.65;;;;;;;;;;1031583;28;20026;-75
2022/08/27 02:26:28;;;;;;;13.20;3.90;;;;;;;;;;1031662;28;20117;-75
2022/08/27 02:26:59;;;;;;;12.02;3.63;;;;;;;;;;1031228;28;20054;-75
2022/08/27 02:27:29;;;;;;;14.30;4.30;;;;;;;;;;1027492;28;20031;-75
2022/08/27 02:28:00;;;;;;;12.48;3.92;;;;;;;;;;1027621;28;20022;-75
2022/08/27 02:28:31;;;;;;;9.95;4.75;;;;;;;;;;1027533;28;20041;-75
2022/08/27 02:29:01;;;;;;;11.32;3.92;;;;;;;;;;1023651;28;20061;-75
2022/08/27 02:29:33;;;;;;;27.92;6.10;;;;;;;;;;1027515;28;20066;-75
2022/08/27 02:30:04;;;;;;;26.80;4.00;;;;;;;;;;1027545;28;20031;-75
2022/08/27 02:30:35;;;;;;;18.75;4.80;;;;;;;;;;1027682;28;20069;-74
2022/08/27 02:31:06;;;;;;;16.17;4.03;;;;;;;;;;1027776;28;20030;-75
2022/08/27 02:31:37;;;;;;;18.33;4.20;;;;;;;;;;1027554;28;20031;-75
2022/08/27 02:32:07;;;;;;;29.08;5.65;;;;;;;;;;1027361;28;20031;-75
2022/08/27 02:32:38;;;;;;;20.05;4.22;;;;;;;;;;1027503;28;20030;-75
2022/08/27 02:33:09;;;;;;;17.13;5.45;;;;;;;;;;1027470;28;20507;-75
2022/08/27 02:33:39;;;;;;;20.15;4.63;;;;;;;;;;1027667;28;20118;-75
2022/08/27 02:34:10;;;;;;;9.75;3.53;;;;;;;;;;1027332;28;20494;-75
2022/08/27 02:34:40;;;;;;;11.15;3.55;;;;;;;;;;1027559;28;20030;-76
2022/08/27 02:35:11;;;;;;;12.50;4.72;;;;;;;;;;1027339;28;20121;-74
2022/08/27 02:35:43;;;;;;;20.08;4.75;;;;;;;;;;1027686;28;20037;-75
2022/08/27 02:36:14;;;;;;;16.98;4.20;;;;;;;;;;1027318;28;20022;-75
2022/08/27 02:36:45;;;;;;;10.07;2.90;;;;;;;;;;1027442;28;20423;-75
2022/08/27 02:37:16;;;;;;;14.27;4.22;;;;;;;;;;1027429;28;20395;-75
2022/08/27 02:37:46;;;;;;;10.43;3.63;;;;;;;;;;1027513;28;20033;-75
2022/08/27 02:38:17;;;;;;;16.77;4.55;;;;;;;;;;1027327;28;20031;-75
2022/08/27 02:38:48;;;;;;;21.35;3.83;;;;;;;;;;1027663;28;20173;-75
2022/08/27 02:39:19;;;;;;;13.60;4.68;;;;;;;;;;1027428;28;20426;-75
2022/08/27 02:39:50;;;;;;;28.60;7.03;;;;;;;;;;1027876;28;20031;-75
2022/08/27 02:40:21;;;;;;;19.02;5.78;;;;;;;;;;1027673;28;20065;-75
2022/08/27 02:40:52;;;;;;;14.43;4.28;;;;;;;;;;1027969;28;20767;-75
2022/08/27 02:41:23;;;;;;;18.50;3.83;;;;;;;;;;1027750;28;20089;-75
2022/08/27 02:41:53;;;;;;;21.98;3.75;;;;;;;;;;1027898;28;20066;-75
2022/08/27 02:42:24;;;;;;;17.55;4.68;;;;;;;;;;1027275;28;20054;-75
2022/08/27 02:42:54;;;;;;;19.55;4.90;;;;;;;;;;1027554;28;20069;-75
2022/08/27 02:43:25;;;;;;;17.40;4.75;;;;;;;;;;1027416;28;20030;-75
2022/08/27 02:43:55;;;;;;;12.27;3.80;;;;;;;;;;1027542;28;20077;-75
2022/08/27 02:44:26;;;;;;;18.13;4.57;;;;;;;;;;1027452;28;20023;-75
2022/08/27 02:44:57;;;;;;;20.63;4.45;;;;;;;;;;1027580;28;20038;-75
2022/08/27 02:45:27;;;;;;;13.10;5.03;;;;;;;;;;1027493;28;20038;-75
2022/08/27 02:45:58;;;;;;;26.83;5.05;;;;;;;;;;1027802;28;20027;-75
2022/08/27 02:46:29;;;;;;;10.13;3.70;;;;;;;;;;1027497;28;20026;-75
2022/08/27 02:47:01;;;;;;;21.45;5.82;;;;;;;;;;1027389;28;20030;-75
2022/08/27 02:47:32;;;;;;;13.25;4.32;;;;;;;;;;1027488;28;20495;-75
2022/08/27 02:48:06;;;;;;;16.08;4.47;;;;;;;;;;1027484;28;20027;-75
2022/08/27 02:48:37;;;;;;;21.52;4.38;;;;;;;;;;1027514;28;20041;-75
2022/08/27 02:49:09;;;;;;;10.57;4.10;;;;;;;;;;1027344;28;20027;-75
2022/08/27 02:49:39;;;;;;;15.52;3.92;;;;;;;;;;1027872;28;20169;-75
2022/08/27 02:50:11;;;;;;;9.48;4.13;;;;;;;;;;1028192;28;20034;-75
2022/08/27 02:50:42;;;;;;;19.63;4.60;;;;;;;;;;1028327;28;20082;-75
2022/08/27 02:51:13;;;;;;;15.00;4.20;;;;;;;;;;1028479;28;20399;-75
2022/08/27 02:51:44;;;;;;;12.25;4.18;;;;;;;;;;1028293;28;20027;-75
2022/08/27 02:52:15;;;;;;;21.77;5.95;;;;;;;;;;1028140;28;20051;-75
2022/08/27 02:52:46;;;;;;;17.38;4.10;;;;;;;;;;1028165;28;20093;-75
2022/08/27 02:53:17;;;;;;;20.42;4.85;;;;;;;;;;1028132;28;20038;-75
2022/08/27 02:53:48;;;;;;;33.67;4.18;;;;;;;;;;1028282;28;20022;-75
2022/08/27 02:54:18;;;;;;;14.10;4.68;;;;;;;;;;1028158;28;20027;-75
2022/08/27 02:54:49;;;;;;;25.50;4.70;;;;;;;;;;1028335;28;20118;-75
2022/08/27 02:55:21;;;;;;;17.95;4.43;;;;;;;;;;1028141;28;20033;-75
2022/08/27 02:55:51;;;;;;;13.57;4.72;;;;;;;;;;1028669;28;20466;-75
2022/08/27 02:56:22;;;;;;;10.30;3.58;;;;;;;;;;1028425;28;20039;-75
2022/08/27 02:56:53;;;;;;;13.18;2.92;;;;;;;;;;1028610;28;20522;-75
2022/08/27 02:57:24;;;;;;;12.13;4.47;;;;;;;;;;1028500;28;20200;-75
2022/08/27 02:57:55;;;;;;;15.13;3.45;;;;;;;;;;1028670;28;20039;-75
2022/08/27 02:58:25;;;;;;;13.73;2.83;;;;;;;;;;1028455;28;20062;-75
2022/08/27 02:58:57;;;;;;;20.33;4.38;;;;;;;;;;1028543;28;20031;-75
2022/08/27 02:59:28;;;;;;;7.05;2.50;;;;;;;;;;1028598;28;20089;-75
2022/08/27 02:59:58;;;;;;;11.90;3.90;;;;;;;;;;1025083;28;20082;-75
2022/08/27 03:00:29;;;;;;;12.00;3.63;;;;;;;;;;1024544;28;20033;-75
2022/08/27 03:01:00;;;;;;;9.75;2.95;;;;;;;;;;1024530;28;20023;-75
2022/08/27 03:01:31;;;;;;;10.48;3.00;;;;;;;;;;1024603;28;20035;-75
2022/08/27 03:02:01;;;;;;;9.73;2.90;;;;;;;;;;1024468;28;20027;-75
2022/08/27 03:02:32;;;;;;;7.18;3.13;;;;;;;;;;1024606;28;20029;-75
2022/08/27 03:03:02;;;;;;;10.07;3.03;;;;;;;;;;1024477;28;20027;-75
2022/08/27 03:03:33;;;;;;;11.25;3.70;;;;;;;;;;1024524;28;20567;-75
2022/08/27 03:04:04;;;;;;;10.30;2.63;;;;;;;;;;1024462;28;20057;-75
2022/08/27 03:04:34;;;;;;;9.63;3.60;;;;;;;;;;1024567;28;20031;-75
2022/08/27 03:05:06;;;;;;;8.60;2.50;;;;;;;;;;1027176;28;20031;-75
2022/08/27 03:05:37;;;;;;;6.78;2.58;;;;;;;;;;1028665;28;20082;-75
2022/08/27 03:06:07;;;;;;;12.30;3.28;;;;;;;;;;1028406;28;20023;-75
2022/08/27 03:06:38;;;;;;;6.95;2.60;;;;;;;;;;1028563;28;20467;-75
2022/08/27 03:07:08;;;;;;;7.13;2.85;;;;;;;;;;1028244;28;20031;-75
2022/08/27 03:07:39;;;;;;;9.25;2.05;;;;;;;;;;1028139;28;20027;-75
2022/08/27 03:08:10;;;;;;;9.02;2.35;;;;;;;;;;1028050;28;20530;-75